Van Kinsbergen — PAKB — position and weather

sailwx.info

Track history (hours):
 
Tides and Currents Weather Stations Pressure Air Temp Water Temp Dewpoint Dewpoint Depression Visibility Wind Speed Wind Dir Waves Ship Positions

Van Kinsbergen

Last reported at 2016-Jun-25 15:25 UTC. Time now 2016-Jun-26 11:58 UTC.
Position N 52°58' E 004°47'.

Length 40 m; draft 3.1 m.

MMSI: 244736000.

Date/timePositionNaut miles runAvg speedWind from/ knotsBaromVisibWave heightAir tempDewpointWater temp
2016-Jun-25 15:25N 52°58' E 004°47'0 0.0
2016-Jun-24 22:13N 52°58' E 004°47'0 0.0
2016-Jun-24 15:31N 52°58' E 004°47'0 0.0
2016-Jun-24 11:04N 52°58' E 004°47'1 0.6
2016-Jun-24 08:30N 52°59' E 004°47'1 1.3
2016-Jun-24 07:33N 52°59' E 004°45'16 5.5
2016-Jun-24 04:33N 52°44' E 004°31'10 9.6
2016-Jun-24 03:33N 52°35' E 004°32'10 9.8
2016-Jun-24 02:33N 52°25' E 004°28'9 8.9
2016-Jun-24 01:33N 52°21' E 004°15'9 8.5
2016-Jun-24 00:33N 52°17' E 004°02'8 8.3
2016-Jun-23 23:33N 52°17' E 003°49'16 7.8
2016-Jun-23 21:28N 52°07' E 003°27'11 8.7
2016-Jun-23 20:12N 51°56' E 003°22'5 8.2
2016-Jun-23 19:33N 51°51' E 003°23'9 8.9
2016-Jun-23 18:30N 51°42' E 003°22'9 9.4
2016-Jun-23 17:32N 51°36' E 003°11'1010.0
2016-Jun-23 16:33N 51°27' E 003°05'8 8.0
2016-Jun-23 15:31N 51°25' E 003°18'8 8.5
2016-Jun-23 14:33N 51°25' E 003°31'6 5.7
2016-Jun-23 13:33N 51°31' E 003°27'4 4.3
2016-Jun-23 12:33N 51°35' E 003°25'7 7.4
2016-Jun-23 11:33N 51°28' E 003°31'5 4.6
2016-Jun-23 10:33N 51°25' E 003°26'1010.2
2016-Jun-23 09:33N 51°23' E 003°10'7 7.5
2016-Jun-23 08:33N 51°21' E 002°58'9 9.3
2016-Jun-23 07:33N 51°21' E 002°43'16 7.9
2016-Jun-23 05:33N 51°19' E 002°19'10 9.9
2016-Jun-23 04:33N 51°14' E 002°05'1111.3
2016-Jun-23 03:33N 51°08' E 001°50'1212.3
2016-Jun-23 02:33N 50°59' E 001°36'6911.4
2016-Jun-22 20:30N 50°19' E 000°08'1411.4
2016-Jun-22 19:15N 50°23' W 000°14'811.4
2016-Jun-22 18:32N 50°26' W 000°25'1110.7
2016-Jun-22 17:32N 50°31' W 000°40'10 9.8
2016-Jun-22 16:33N 50°36' W 000°53'1010.1
2016-Jun-22 15:34N 50°44' W 001°03'20 8.6
2016-Jun-22 13:14N 50°41' W 001°35'7 7.2
2016-Jun-22 12:17N 50°36' W 001°27'16 9.3
2016-Jun-22 10:33N 50°39' W 001°02'4 3.7
2016-Jun-22 09:33N 50°43' W 001°01'1110.7
2016-Jun-22 08:33N 50°47' W 001°17'1311.2
2016-Jun-22 07:26N 50°41' W 001°35'9 9.3
2016-Jun-22 06:26N 50°36' W 001°47'39 8.0
2016-Jun-22 01:33N 50°32' W 002°48'9 9.3
2016-Jun-22 00:34N 50°34' W 003°02'8 8.2
2016-Jun-21 23:34N 50°31' W 003°14'1010.0
2016-Jun-21 22:33N 50°22' W 003°22'1010.5
2016-Jun-21 21:34N 50°13' W 003°31'10 9.8
2016-Jun-21 20:34N 50°10' W 003°45'1010.5
2016-Jun-21 19:34N 50°14' W 004°00'8 8.4
2016-Jun-21 18:33N 50°19' W 004°11'3 2.0
2016-Jun-21 17:12N 50°18' W 004°15'4 5.1
2016-Jun-21 16:27N 50°18' W 004°08'2 1.7
2016-Jun-21 15:26N 50°17' W 004°07'4 3.8
2016-Jun-21 14:23N 50°18' W 004°13'6 7.2
2016-Jun-21 13:34N 50°17' W 004°21'1110.9
2016-Jun-21 12:34N 50°10' W 004°35'1110.9
2016-Jun-21 11:33N 50°03' W 004°48'10 9.9
2016-Jun-21 10:30N 49°57' W 005°01'44 7.3
2016-Jun-21 04:27N 50°20' W 005°60'9010.1
2016-Jun-20 19:33N 51°50' W 005°53'28 9.3
2016-Jun-20 16:31N 52°17' W 005°46'1111.6
2016-Jun-20 15:33N 52°28' W 005°47'  
2016-Jun-18 03:33N 54°02' W 005°44'9 9.3
2016-Jun-18 02:34N 54°10' W 005°35'10 9.7
2016-Jun-18 01:34N 54°18' W 005°26'9 9.2
2016-Jun-18 00:33N 54°26' W 005°18'9 8.9
2016-Jun-17 23:33N 54°34' W 005°22'9 9.2
2016-Jun-17 22:33N 54°43' W 005°29'9 8.9
2016-Jun-17 21:32N 54°51' W 005°35'2410.0
2016-Jun-17 19:11N 55°14' W 005°47'911.7
2016-Jun-17 18:24N 55°22' W 005°52'1011.6
2016-Jun-17 17:33N 55°32' W 005°52'1111.3
2016-Jun-17 16:33N 55°43' W 005°51'13 1.8
2016-Jun-17 09:28N 55°56' W 005°46'8 6.7
2016-Jun-17 08:20N 55°49' W 005°52'38 6.4
2016-Jun-17 02:21N 56°25' W 005°29'5 6.3
2016-Jun-17 01:33N 56°27' W 005°38'9 9.0
2016-Jun-17 00:34N 56°35' W 005°29'9 8.9
2016-Jun-16 23:33N 56°41' W 005°18'5 5.2
2016-Jun-16 22:32N 56°45' W 005°12'8 8.1
2016-Jun-16 21:33N 56°39' W 005°21'9 9.2
2016-Jun-16 20:33N 56°32' W 005°32'36 6.0
2016-Jun-16 14:31N 57°08' W 005°46'9 8.8
2016-Jun-16 13:32N 57°15' W 005°38'8 8.5
2016-Jun-16 12:33N 57°19' W 005°52'1010.0
2016-Jun-16 11:33N 57°29' W 005°55'44 2.2
2016-Jun-15 15:33N 58°11' W 005°28'  
Track history (hours):
 
Tides and Currents Weather Stations Pressure Air Temp Water Temp Dewpoint Dewpoint Depression Visibility Wind Speed Wind Dir Waves Ship Positions

Van Kinsbergen

Last reported at 2016-Jun-25 15:25 UTC. Time now 2016-Jun-26 11:58 UTC.
Position N 52°58' E 004°47'.

Length 40 m; draft 3.1 m.

MMSI: 244736000.

Date/timePositionNaut miles runAvg speedWind from/ knotsBaromVisibWave heightAir tempDewpointWater temp
2016-Jun-25 15:25N 52°58' E 004°47'0 0.0
2016-Jun-24 22:13N 52°58' E 004°47'0 0.0
2016-Jun-24 15:31N 52°58' E 004°47'0 0.0
2016-Jun-24 11:04N 52°58' E 004°47'1 0.6
2016-Jun-24 08:30N 52°59' E 004°47'1 1.3
2016-Jun-24 07:33N 52°59' E 004°45'16 5.5
2016-Jun-24 04:33N 52°44' E 004°31'10 9.6
2016-Jun-24 03:33N 52°35' E 004°32'10 9.8
2016-Jun-24 02:33N 52°25' E 004°28'9 8.9
2016-Jun-24 01:33N 52°21' E 004°15'9 8.5
2016-Jun-24 00:33N 52°17' E 004°02'8 8.3
2016-Jun-23 23:33N 52°17' E 003°49'16 7.8
2016-Jun-23 21:28N 52°07' E 003°27'11 8.7
2016-Jun-23 20:12N 51°56' E 003°22'5 8.2
2016-Jun-23 19:33N 51°51' E 003°23'9 8.9
2016-Jun-23 18:30N 51°42' E 003°22'9 9.4
2016-Jun-23 17:32N 51°36' E 003°11'1010.0
2016-Jun-23 16:33N 51°27' E 003°05'8 8.0
2016-Jun-23 15:31N 51°25' E 003°18'8 8.5
2016-Jun-23 14:33N 51°25' E 003°31'6 5.7
2016-Jun-23 13:33N 51°31' E 003°27'4 4.3
2016-Jun-23 12:33N 51°35' E 003°25'7 7.4
2016-Jun-23 11:33N 51°28' E 003°31'5 4.6
2016-Jun-23 10:33N 51°25' E 003°26'1010.2
2016-Jun-23 09:33N 51°23' E 003°10'7 7.5
2016-Jun-23 08:33N 51°21' E 002°58'9 9.3
2016-Jun-23 07:33N 51°21' E 002°43'16 7.9
2016-Jun-23 05:33N 51°19' E 002°19'10 9.9
2016-Jun-23 04:33N 51°14' E 002°05'1111.3
2016-Jun-23 03:33N 51°08' E 001°50'1212.3
2016-Jun-23 02:33N 50°59' E 001°36'6911.4
2016-Jun-22 20:30N 50°19' E 000°08'1411.4
2016-Jun-22 19:15N 50°23' W 000°14'811.4
2016-Jun-22 18:32N 50°26' W 000°25'1110.7
2016-Jun-22 17:32N 50°31' W 000°40'10 9.8
2016-Jun-22 16:33N 50°36' W 000°53'1010.1
2016-Jun-22 15:34N 50°44' W 001°03'20 8.6
2016-Jun-22 13:14N 50°41' W 001°35'7 7.2
2016-Jun-22 12:17N 50°36' W 001°27'16 9.3
2016-Jun-22 10:33N 50°39' W 001°02'4 3.7
2016-Jun-22 09:33N 50°43' W 001°01'1110.7
2016-Jun-22 08:33N 50°47' W 001°17'1311.2
2016-Jun-22 07:26N 50°41' W 001°35'9 9.3
2016-Jun-22 06:26N 50°36' W 001°47'39 8.0
2016-Jun-22 01:33N 50°32' W 002°48'9 9.3
2016-Jun-22 00:34N 50°34' W 003°02'8 8.2
2016-Jun-21 23:34N 50°31' W 003°14'1010.0
2016-Jun-21 22:33N 50°22' W 003°22'1010.5
2016-Jun-21 21:34N 50°13' W 003°31'10 9.8
2016-Jun-21 20:34N 50°10' W 003°45'1010.5
2016-Jun-21 19:34N 50°14' W 004°00'8 8.4
2016-Jun-21 18:33N 50°19' W 004°11'3 2.0
2016-Jun-21 17:12N 50°18' W 004°15'4 5.1
2016-Jun-21 16:27N 50°18' W 004°08'2 1.7
2016-Jun-21 15:26N 50°17' W 004°07'4 3.8
2016-Jun-21 14:23N 50°18' W 004°13'6 7.2
2016-Jun-21 13:34N 50°17' W 004°21'1110.9
2016-Jun-21 12:34N 50°10' W 004°35'1110.9
2016-Jun-21 11:33N 50°03' W 004°48'10 9.9
2016-Jun-21 10:30N 49°57' W 005°01'44 7.3
2016-Jun-21 04:27N 50°20' W 005°60'9010.1
2016-Jun-20 19:33N 51°50' W 005°53'28 9.3
2016-Jun-20 16:31N 52°17' W 005°46'1111.6
2016-Jun-20 15:33N 52°28' W 005°47'  
2016-Jun-18 03:33N 54°02' W 005°44'9 9.3
2016-Jun-18 02:34N 54°10' W 005°35'10 9.7
2016-Jun-18 01:34N 54°18' W 005°26'9 9.2
2016-Jun-18 00:33N 54°26' W 005°18'9 8.9
2016-Jun-17 23:33N 54°34' W 005°22'9 9.2
2016-Jun-17 22:33N 54°43' W 005°29'9 8.9
2016-Jun-17 21:32N 54°51' W 005°35'2410.0
2016-Jun-17 19:11N 55°14' W 005°47'911.7
2016-Jun-17 18:24N 55°22' W 005°52'1011.6
2016-Jun-17 17:33N 55°32' W 005°52'1111.3
2016-Jun-17 16:33N 55°43' W 005°51'13 1.8
2016-Jun-17 09:28N 55°56' W 005°46'8 6.7
2016-Jun-17 08:20N 55°49' W 005°52'38 6.4
2016-Jun-17 02:21N 56°25' W 005°29'5 6.3
2016-Jun-17 01:33N 56°27' W 005°38'9 9.0
2016-Jun-17 00:34N 56°35' W 005°29'9 8.9
2016-Jun-16 23:33N 56°41' W 005°18'5 5.2
2016-Jun-16 22:32N 56°45' W 005°12'8 8.1
2016-Jun-16 21:33N 56°39' W 005°21'9 9.2
2016-Jun-16 20:33N 56°32' W 005°32'36 6.0
2016-Jun-16 14:31N 57°08' W 005°46'9 8.8
2016-Jun-16 13:32N 57°15' W 005°38'8 8.5
2016-Jun-16 12:33N 57°19' W 005°52'1010.0
2016-Jun-16 11:33N 57°29' W 005°55'44 2.2
2016-Jun-15 15:33N 58°11' W 005°28'  

Dump ship's entire track history